Terminal Aerodrome Forecast
Issued by NWS

Home | Current Version | Previous Version | Text Only | Print | Product List | Glossary On
Versions: 1 2 3 4 5 6 7 8 9 10 11 12 13 14 15 16 17 18 19
377
FTUS41 KGYX 290520
TAFAUG
TAF
KAUG 290520Z 2906/3006 00000KT 1/4SM FG VV001
      TEMPO 2909/2913 1SM BR BKN002
     FM291300 25005KT P6SM SCT060 BKN100
     FM291800 29012KT P6SM SCT050 SCT100
     FM300000 33008KT P6SM SKC=

USA.gov is the U.S. government's official web portal to all federal, state and local government web resources and services.